Time;durP1;ratioP1;P1;durP2;ratioP2;P2;SDS_P1;SDS_P2;PMS_P1;PMS_P2;Temp;Humidity;BMP_temperature;BMP_pressure;BME280_temperature;BME280_humidity;BME280_pressure;Samples;Min_cycle;Max_cycle;Signal;HPM_P1;HPM_P2
2023/12/12 00:01:53;;;;;;;10.60;2.20;;;10.60;99.90;;;;;;6373267;22;20002;-93
2023/12/12 00:04:18;;;;;;;3.03;1.67;;;10.10;99.90;;;;;;6369137;22;20452;-93
2023/12/12 00:06:46;;;;;;;8.93;2.63;;;10.00;99.90;;;;;;6381572;22;19983;-93
2023/12/12 00:09:17;;;;;;;10.02;3.25;;;9.80;99.90;;;;;;6388126;22;20002;-93
2023/12/12 00:11:51;;;;;;;5.35;2.22;;;9.30;99.90;;;;;;6379393;22;20018;-94
2023/12/12 00:14:17;;;;;;;7.22;2.30;;;9.20;99.90;;;;;;6365173;22;20048;-93
2023/12/12 00:17:05;;;;;;;12.02;2.30;;;9.60;99.90;;;;;;6380414;22;20002;-93
2023/12/12 00:19:53;;;;;;;7.28;1.67;;;9.20;99.90;;;;;;6379335;22;20004;-91
2023/12/12 00:22:41;;;;;;;10.52;1.83;;;9.20;99.90;;;;;;6375975;22;19995;-92
2023/12/12 00:25:07;;;;;;;8.25;2.40;;;8.90;99.90;;;;;;6385482;22;20018;-92
2023/12/12 00:27:43;;;;;;;9.55;2.72;;;9.20;99.90;;;;;;6390467;22;20009;-92
2023/12/12 00:30:33;;;;;;;11.55;2.28;;;10.10;99.90;;;;;;6393733;22;20030;-92
2023/12/12 00:36:01;;;;;;;12.30;2.90;;;9.20;99.90;;;;;;6368202;22;20040;-91
2023/12/12 00:41:11;;;;;;;4.10;2.25;;;10.70;99.90;;;;;;6372147;22;20050;-93
2023/12/12 00:43:40;;;;;;;11.05;2.83;;;9.80;99.90;;;;;;6371170;22;20018;-94
2023/12/12 00:46:06;;;;;;;6.95;2.58;;;9.80;99.90;;;;;;6372916;22;19995;-93
2023/12/12 00:48:31;;;;;;;8.65;3.30;;;9.50;99.90;;;;;;6371043;22;20002;-93
2023/12/12 00:51:00;;;;;;;10.93;2.75;;;9.60;99.90;;;;;;6369895;22;20376;-93
2023/12/12 00:53:26;;;;;;;13.95;2.83;;;9.70;99.90;;;;;;6371823;22;20002;-93
2023/12/12 00:55:51;;;;;;;10.43;2.65;;;9.20;99.90;;;;;;6371390;22;20018;-93
2023/12/12 00:58:25;;;;;;;7.82;2.47;;;9.80;99.90;;;;;;6371669;22;20048;-93
2023/12/12 01:00:51;;;;;;;6.47;2.53;;;9.70;99.90;;;;;;6367186;22;20018;-91
2023/12/12 01:06:23;;;;;;;8.95;3.08;;;9.00;99.90;;;;;;6370251;22;20021;-92
2023/12/12 01:09:09;;;;;;;16.48;3.15;;;8.80;99.90;;;;;;6374406;22;20014;-93
2023/12/12 01:11:34;;;;;;;15.40;3.53;;;8.30;99.90;;;;;;6369604;22;20010;-92
2023/12/12 01:14:15;;;;;;;9.63;3.38;;;9.60;99.90;;;;;;6371770;22;20021;-90
2023/12/12 01:16:41;;;;;;;;;;;8.80;99.90;;;;;;6373659;22;20007;-90
2023/12/12 01:19:06;;;;;;;8.80;3.35;;;9.60;99.90;;;;;;6389345;22;19915;-91
2023/12/12 01:21:38;;;;;;;8.40;3.38;;;9.50;99.90;;;;;;6372102;22;20077;-91
2023/12/12 01:24:16;;;;;;;9.88;2.83;;;9.20;99.90;;;;;;6370724;22;20041;-92
2023/12/12 01:26:41;;;;;;;4.85;2.92;;;9.40;99.90;;;;;;6371304;22;19998;-91
2023/12/12 01:29:09;;;;;;;12.57;3.58;;;8.90;99.90;;;;;;6371050;22;20002;-91
2023/12/12 01:34:03;;;;;;;11.10;3.58;;;8.80;99.90;;;;;;6369294;22;20021;-91
2023/12/12 01:36:29;;;;;;;9.80;3.47;;;9.30;99.90;;;;;;6371447;22;20010;-90
2023/12/12 01:38:55;;;;;;;13.52;4.75;;;9.10;99.90;;;;;;6370716;22;20445;-91
2023/12/12 01:41:30;;;;;;;13.40;3.78;;;9.70;99.90;;;;;;6371203;22;19998;-91
2023/12/12 01:47:17;;;;;;;19.10;3.92;;;8.80;99.90;;;;;;6367816;22;20026;-89
2023/12/12 01:49:54;;;;;;;7.40;3.92;;;7.60;99.90;;;;;;6367702;22;20018;-93
2023/12/12 01:52:29;;;;;;;7.85;3.50;;;10.10;99.90;;;;;;6370750;22;20077;-92
2023/12/12 01:55:26;;;;;;;12.40;3.55;;;9.70;99.90;;;;;;6369912;22;20417;-93
2023/12/12 01:58:01;;;;;;;11.98;3.75;;;8.70;99.90;;;;;;6373558;22;19998;-92
2023/12/12 02:00:29;;;;;;;12.07;3.35;;;9.40;99.90;;;;;;6364228;22;20029;-92
2023/12/12 02:05:52;;;;;;;9.50;3.85;;;8.60;99.90;;;;;;6365906;22;20040;-91
2023/12/12 02:08:27;;;;;;;10.00;4.20;;;9.70;99.90;;;;;;6365899;22;20049;-92
2023/12/12 02:10:59;;;;;;;7.65;4.28;;;10.00;99.90;;;;;;6371497;22;20003;-93
2023/12/12 02:13:50;;;;;;;10.00;4.25;;;9.90;99.90;;;;;;6375358;22;20014;-93
2023/12/12 02:16:38;;;;;;;14.02;4.85;;;8.50;99.90;;;;;;6374150;22;20091;-93
2023/12/12 02:19:21;;;;;;;10.10;4.57;;;8.50;99.90;;;;;;6370407;22;20009;-93
2023/12/12 02:24:41;;;;;;;10.65;4.65;;;8.50;99.90;;;;;;6419355;22;20357;-91
2023/12/12 02:27:07;;;;;;;22.63;6.10;;;9.10;99.90;;;;;;6434190;22;20299;-92
2023/12/12 02:33:17;;;;;;;;;;;7.80;99.90;;;;;;6403085;22;20071;-92
2023/12/12 02:35:43;;;;;;;19.88;6.88;;;7.80;99.90;;;;;;6402136;22;19902;-94
2023/12/12 02:38:13;;;;;;;18.75;6.85;;;8.40;99.90;;;;;;6400183;22;20009;-93
2023/12/12 02:40:45;;;;;;;14.05;4.97;;;8.00;99.90;;;;;;6401406;22;19994;-91
2023/12/12 02:43:11;;;;;;;13.77;5.57;;;8.40;99.90;;;;;;6401194;22;20009;-92
2023/12/12 02:45:45;;;;;;;16.60;6.20;;;8.40;99.90;;;;;;6405271;22;19997;-92
2023/12/12 02:48:17;;;;;;;15.13;7.00;;;8.50;99.90;;;;;;6402789;22;19997;-91
2023/12/12 02:50:42;;;;;;;13.10;5.65;;;9.00;99.90;;;;;;6387888;22;20034;-90
2023/12/12 02:53:08;;;;;;;19.17;6.43;;;9.40;99.90;;;;;;6370064;22;19999;-92
2023/12/12 02:55:44;;;;;;;19.63;6.32;;;9.00;99.90;;;;;;6369392;22;20029;-91
2023/12/12 02:58:29;;;;;;;14.85;6.30;;;8.80;99.90;;;;;;6370297;22;20253;-90
2023/12/12 03:01:01;;;;;;;19.17;6.72;;;8.30;99.90;;;;;;6370393;22;19998;-93
2023/12/12 03:03:35;;;;;;;20.48;6.95;;;9.00;99.90;;;;;;6368973;22;20015;-93
2023/12/12 03:06:10;;;;;;;20.60;8.27;;;9.00;99.90;;;;;;6372908;22;20002;-92
2023/12/12 03:08:36;;;;;;;20.48;7.03;;;9.10;99.90;;;;;;6386456;22;20014;-91
2023/12/12 03:11:16;;;;;;;15.82;6.75;;;8.90;99.90;;;;;;6370631;22;19998;-91
2023/12/12 03:13:41;;;;;;;15.13;7.03;;;8.90;99.90;;;;;;6370916;22;20007;-92
2023/12/12 03:16:15;;;;;;;11.85;6.57;;;9.00;99.90;;;;;;6369520;22;20398;-92
2023/12/12 03:18:42;;;;;;;19.27;8.35;;;8.10;99.90;;;;;;6367961;22;20450;-93
2023/12/12 03:21:07;;;;;;;21.10;8.02;;;8.90;99.90;;;;;;6370012;22;20055;-91
2023/12/12 03:23:39;;;;;;;22.88;7.97;;;8.90;99.90;;;;;;6369965;22;20359;-92
2023/12/12 03:26:21;;;;;;;20.30;7.93;;;8.80;99.90;;;;;;6370582;22;20398;-92
2023/12/12 03:28:52;;;;;;;27.02;8.95;;;8.90;99.90;;;;;;6369272;22;20006;-93
2023/12/12 03:31:23;;;;;;;27.00;8.30;;;8.90;99.90;;;;;;6369996;22;20005;-92
2023/12/12 03:33:58;;;;;;;14.45;8.13;;;8.50;99.90;;;;;;6369955;22;20007;-92
2023/12/12 03:36:29;;;;;;;20.60;8.70;;;8.80;99.90;;;;;;6370343;22;20002;-94
2023/12/12 03:38:55;;;;;;;23.13;8.90;;;8.70;99.90;;;;;;6370545;22;20026;-93
2023/12/12 03:41:20;;;;;;;19.45;9.60;;;8.90;99.90;;;;;;6369165;22;20430;-91
2023/12/12 03:44:04;;;;;;;23.42;10.07;;;9.20;99.90;;;;;;6372323;22;20010;-93
2023/12/12 03:46:33;;;;;;;20.67;9.45;;;8.00;99.90;;;;;;6372095;22;20007;-92
2023/12/12 03:48:59;;;;;;;25.20;9.05;;;8.90;99.90;;;;;;6372291;22;20058;-92
2023/12/12 03:51:49;;;;;;;22.17;9.98;;;8.90;99.90;;;;;;6372010;22;20089;-93
2023/12/12 03:54:15;;;;;;;21.73;9.65;;;7.60;99.90;;;;;;6365463;22;20038;-92
2023/12/12 03:56:55;;;;;;;20.58;9.27;;;8.60;99.90;;;;;;6371196;22;19998;-92
2023/12/12 03:59:20;;;;;;;18.58;8.98;;;8.60;99.90;;;;;;6372660;22;20010;-93
2023/12/12 04:01:49;;;;;;;28.17;10.45;;;8.20;99.90;;;;;;6389083;22;20018;-92
2023/12/12 04:04:32;;;;;;;18.08;8.93;;;8.80;99.90;;;;;;6379462;22;20020;-92
2023/12/12 04:07:04;;;;;;;22.23;9.13;;;7.90;99.90;;;;;;6371854;22;20032;-92
2023/12/12 04:09:45;;;;;;;46.03;9.20;;;7.90;99.90;;;;;;6371385;22;20108;-93
2023/12/12 04:12:23;;;;;;;25.95;9.95;;;8.30;99.90;;;;;;6367328;22;20026;-90
2023/12/12 04:14:49;;;;;;;29.13;9.98;;;8.40;99.90;;;;;;6370837;22;20006;-92
2023/12/12 04:17:33;;;;;;;21.75;9.40;;;9.20;99.90;;;;;;6330863;22;20029;-91
2023/12/12 04:19:58;;;;;;;31.98;9.75;;;8.70;99.90;;;;;;6369926;22;20365;-92
2023/12/12 04:22:29;;;;;;;20.35;8.70;;;8.00;99.90;;;;;;6376916;22;20001;-93
2023/12/12 04:24:55;;;;;;;31.98;9.80;;;8.40;99.90;;;;;;6370957;22;20006;-93
2023/12/12 04:27:40;;;;;;;21.85;9.65;;;8.70;99.90;;;;;;6371077;22;20002;-90
2023/12/12 04:30:06;;;;;;;26.52;9.05;;;7.40;99.90;;;;;;6369736;22;19998;-86
2023/12/12 04:32:32;;;;;;;22.27;8.50;;;8.00;99.90;;;;;;6373243;22;19999;-93
2023/12/12 04:34:59;;;;;;;29.90;9.43;;;8.00;99.90;;;;;;6372412;22;20001;-92
2023/12/12 04:37:46;;;;;;;31.67;9.35;;;8.90;99.90;;;;;;6369097;22;20041;-90
2023/12/12 04:40:30;;;;;;;32.85;9.70;;;8.00;99.90;;;;;;6370227;22;20002;-92
2023/12/12 04:43:08;;;;;;;23.45;9.38;;;9.30;99.90;;;;;;6370616;22;20422;-90
2023/12/12 04:45:54;;;;;;;31.90;9.27;;;8.70;99.90;;;;;;6371356;22;20002;-91
2023/12/12 04:48:36;;;;;;;31.83;9.20;;;9.40;99.90;;;;;;6370760;22;20044;-93
2023/12/12 04:51:12;;;;;;;;;;;;;;;;;;;;;
2023/12/12 04:53:37;;;;;;;27.10;10.48;;;8.00;99.90;;;;;;6367558;22;20121;-94
2023/12/12 04:56:25;;;;;;;29.50;10.02;;;8.40;99.90;;;;;;6378215;22;19994;-93
2023/12/12 04:58:51;;;;;;;25.80;9.43;;;8.00;99.90;;;;;;6381578;22;20010;-95
2023/12/12 05:03:58;;;;;;;31.15;10.20;;;8.00;99.90;;;;;;6370463;22;20049;-92
2023/12/12 05:09:27;;;;;;;23.80;8.95;;;8.00;99.90;;;;;;6371773;22;20033;-93
2023/12/12 05:12:11;;;;;;;40.53;9.85;;;7.90;99.90;;;;;;6295829;22;20034;-93
2023/12/12 05:14:37;;;;;;;27.15;9.20;;;8.80;99.90;;;;;;6339410;22;20007;-93
2023/12/12 05:19:32;;;;;;;30.50;9.05;;;7.90;99.90;;;;;;6333795;22;20137;-93
2023/12/12 05:22:11;;;;;;;27.83;8.95;;;9.30;99.90;;;;;;6340556;22;20009;-93
2023/12/12 05:24:59;;;;;;;29.73;10.15;;;7.90;99.90;;;;;;6339771;22;20022;-93
2023/12/12 05:27:43;;;;;;;26.77;9.30;;;8.00;99.90;;;;;;6343605;22;20002;-94
2023/12/12 05:30:21;;;;;;;29.55;8.55;;;8.00;99.90;;;;;;6339705;22;19998;-93
2023/12/12 05:32:55;;;;;;;35.88;9.27;;;8.90;99.90;;;;;;6339029;22;20011;-93
2023/12/12 05:35:22;;;;;;;26.95;9.63;;;8.90;99.90;;;;;;6338620;22;19999;-93
2023/12/12 05:38:03;;;;;;;31.10;9.05;;;8.60;99.90;;;;;;6339277;22;20052;-93
2023/12/12 05:40:49;;;;;;;25.15;8.65;;;8.30;99.90;;;;;;6354035;22;20018;-92
2023/12/12 05:43:15;;;;;;;20.63;8.50;;;7.60;99.90;;;;;;6368694;22;20022;-92
2023/12/12 05:46:04;;;;;;;35.50;9.65;;;9.00;99.90;;;;;;6371284;22;20419;-92
2023/12/12 05:48:30;;;;;;;38.00;10.55;;;8.10;99.90;;;;;;6369080;22;20030;-92
2023/12/12 05:51:05;;;;;;;25.30;8.32;;;8.90;99.90;;;;;;6384388;22;20063;-93
2023/12/12 05:53:31;;;;;;;42.28;10.68;;;8.10;99.90;;;;;;6377723;22;20005;-94
2023/12/12 05:55:56;;;;;;;36.65;9.15;;;8.90;99.90;;;;;;6371018;22;20007;-92
2023/12/12 05:58:22;;;;;;;34.30;10.32;;;8.20;99.90;;;;;;6360728;22;20018;-94
2023/12/12 06:00:51;;;;;;;40.45;9.75;;;7.50;99.90;;;;;;6338116;22;20010;-93
2023/12/12 06:03:20;;;;;;;35.63;10.35;;;9.00;99.90;;;;;;6341619;22;20018;-93
2023/12/12 06:05:58;;;;;;;34.20;9.85;;;8.80;99.90;;;;;;6338544;22;20058;-91
2023/12/12 06:08:30;;;;;;;32.88;9.13;;;9.00;99.90;;;;;;6333897;22;20426;-92
2023/12/12 06:10:57;;;;;;;30.88;7.90;;;8.60;99.90;;;;;;6335053;22;20003;-91
2023/12/12 06:13:41;;;;;;;36.67;8.15;;;9.40;99.90;;;;;;6335635;22;20113;-90
2023/12/12 06:16:07;;;;;;;32.75;8.65;;;8.30;99.90;;;;;;6335131;22;19998;-91
2023/12/12 06:18:51;;;;;;;40.15;9.27;;;8.30;99.90;;;;;;6336855;22;19999;-90
2023/12/12 06:21:17;;;;;;;33.75;8.55;;;8.90;99.90;;;;;;6335031;22;20034;-89
2023/12/12 06:23:43;;;;;;;35.90;9.18;;;9.00;99.90;;;;;;6335156;22;20060;-91
2023/12/12 06:26:29;;;;;;;27.35;8.93;;;9.10;99.90;;;;;;6335953;22;20053;-91
2023/12/12 06:28:55;;;;;;;23.00;8.10;;;8.30;99.90;;;;;;6335380;22;20318;-90
2023/12/12 06:31:20;;;;;;;25.33;8.63;;;9.20;99.90;;;;;;6335842;22;20034;-90
2023/12/12 06:34:16;;;;;;;21.90;8.75;;;9.00;99.90;;;;;;6347650;22;20066;-95
2023/12/12 06:37:05;;;;;;;22.67;8.73;;;8.40;99.90;;;;;;6354568;22;20006;-94
2023/12/12 06:39:34;;;;;;;25.77;7.88;;;7.80;99.90;;;;;;6356653;22;20022;-94
2023/12/12 06:42:18;;;;;;;21.55;8.13;;;8.40;99.90;;;;;;6355250;22;20002;-94
2023/12/12 06:45:13;;;;;;;19.98;8.18;;;8.00;99.90;;;;;;6360115;22;20029;-94
2023/12/12 06:47:39;;;;;;;22.77;8.68;;;8.40;99.90;;;;;;6353321;22;20014;-95
2023/12/12 06:50:06;;;;;;;16.63;8.55;;;9.80;99.90;;;;;;6344656;22;19998;-95
2023/12/12 06:52:54;;;;;;;18.55;8.43;;;8.50;99.90;;;;;;6352359;22;20010;-95
2023/12/12 06:55:20;;;;;;;20.17;7.57;;;8.50;99.90;;;;;;6347786;22;20009;-94
2023/12/12 06:58:03;;;;;;;19.85;7.45;;;8.80;99.90;;;;;;6347614;22;20033;-95
2023/12/12 07:01:00;;;;;;;17.83;7.25;;;8.50;99.90;;;;;;6323386;22;20007;-94
2023/12/12 07:03:32;;;;;;;23.02;8.60;;;9.30;99.90;;;;;;6316828;22;20016;-93
2023/12/12 07:06:48;;;;;;;22.42;8.57;;;7.90;99.90;;;;;;6276844;22;20030;-95
2023/12/12 07:09:21;;;;;;;24.08;8.93;;;8.60;99.90;;;;;;6331985;22;19999;-94
2023/12/12 07:12:04;;;;;;;25.27;8.30;;;8.40;99.90;;;;;;6321635;22;20003;-94
2023/12/12 07:14:48;;;;;;;23.95;8.40;;;8.50;99.90;;;;;;6321579;22;20007;-94
2023/12/12 07:17:14;;;;;;;29.13;9.55;;;8.50;99.90;;;;;;6321774;22;20010;-94
2023/12/12 07:19:46;;;;;;;31.52;8.93;;;8.60;99.90;;;;;;6317784;22;20003;-94
2023/12/12 07:22:13;;;;;;;26.33;8.95;;;9.30;99.90;;;;;;6315641;22;20003;-93
2023/12/12 07:24:40;;;;;;;35.75;9.85;;;8.60;99.90;;;;;;6315714;22;20011;-93
2023/12/12 07:27:25;;;;;;;38.10;10.40;;;8.60;99.90;;;;;;6320492;22;20015;-94
2023/12/12 07:29:51;;;;;;;20.90;8.77;;;8.60;99.90;;;;;;6318424;22;20025;-93
2023/12/12 07:32:16;;;;;;;28.67;8.98;;;8.20;99.90;;;;;;6312016;22;20003;-94
2023/12/12 07:34:51;;;;;;;28.92;9.07;;;9.30;99.90;;;;;;6312051;22;20070;-94
2023/12/12 07:37:17;;;;;;;33.45;8.82;;;9.30;99.90;;;;;;6315385;22;20408;-93
2023/12/12 07:39:52;;;;;;;33.90;10.23;;;9.20;99.90;;;;;;6335782;22;20003;-93
2023/12/12 07:42:18;;;;;;;30.42;9.38;;;8.50;99.90;;;;;;6318254;22;20072;-92
2023/12/12 07:45:03;;;;;;;21.38;9.13;;;9.40;99.90;;;;;;6310741;22;20011;-92
2023/12/12 07:47:43;;;;;;;35.25;9.63;;;8.50;99.90;;;;;;6310207;22;20458;-93
2023/12/12 07:50:31;;;;;;;28.73;10.23;;;9.20;99.90;;;;;;6311157;22;20278;-91
2023/12/12 07:52:56;;;;;;;33.58;9.50;;;8.50;99.90;;;;;;6309836;22;20003;-91
2023/12/12 07:55:22;;;;;;;37.58;8.45;;;8.50;99.90;;;;;;6308961;22;20050;-90
2023/12/12 07:57:53;;;;;;;31.75;8.70;;;9.10;99.90;;;;;;6312757;22;20003;-92
2023/12/12 08:00:19;;;;;;;40.08;8.70;;;9.40;99.90;;;;;;6376895;22;20014;-94
2023/12/12 08:03:05;;;;;;;30.52;8.52;;;9.20;99.90;;;;;;6380399;22;20002;-93
2023/12/12 08:05:37;;;;;;;41.15;9.82;;;8.50;99.90;;;;;;6342840;22;20081;-92
2023/12/12 08:08:04;;;;;;;35.53;8.50;;;9.00;99.90;;;;;;6373703;22;20002;-91
2023/12/12 08:10:45;;;;;;;24.02;8.15;;;8.50;99.90;;;;;;6375560;22;20013;-95
2023/12/12 08:13:11;;;;;;;31.35;7.60;;;9.40;99.90;;;;;;6377939;22;20009;-88
2023/12/12 08:15:41;;;;;;;37.15;10.00;;;9.50;99.90;;;;;;6374035;22;20002;-94
2023/12/12 08:18:09;;;;;;;30.48;7.80;;;9.10;99.90;;;;;;6376118;22;20002;-92
2023/12/12 08:20:50;;;;;;;29.23;7.72;;;9.30;99.90;;;;;;6342688;22;20010;-89
2023/12/12 08:23:15;;;;;;;29.83;8.80;;;9.30;99.90;;;;;;6371877;22;20514;-89
2023/12/12 08:25:41;;;;;;;33.38;9.45;;;9.50;99.90;;;;;;6369855;22;20029;-91
2023/12/12 08:28:25;;;;;;;29.20;8.48;;;9.10;99.90;;;;;;6371504;22;19998;-91
2023/12/12 08:30:50;;;;;;;30.92;8.40;;;9.00;99.90;;;;;;6372696;22;19995;-89
2023/12/12 08:33:16;;;;;;;30.95;8.18;;;8.60;99.90;;;;;;6375853;22;20013;-88
2023/12/12 08:35:42;;;;;;;32.78;8.65;;;9.10;99.90;;;;;;6370165;22;20410;-88
2023/12/12 08:38:18;;;;;;;27.42;8.80;;;9.40;99.90;;;;;;6371883;22;20010;-89
2023/12/12 08:40:47;;;;;;;28.48;7.03;;;9.60;99.90;;;;;;6365870;22;19998;-91
2023/12/12 08:43:14;;;;;;;29.90;7.40;;;9.50;99.90;;;;;;6372309;22;20010;-90
2023/12/12 08:45:55;;;;;;;29.92;7.65;;;8.30;99.90;;;;;;6373550;22;20066;-89
2023/12/12 08:48:36;;;;;;;23.02;6.93;;;9.60;99.90;;;;;;6373338;22;20469;-90
2023/12/12 08:51:02;;;;;;;26.13;6.78;;;8.90;99.90;;;;;;6374672;22;20007;-90
2023/12/12 08:53:28;;;;;;;31.40;8.95;;;8.70;99.90;;;;;;6377366;22;20081;-91
2023/12/12 08:56:14;;;;;;;27.38;7.35;;;9.50;99.90;;;;;;6373534;22;20052;-91
2023/12/12 08:58:58;;;;;;;37.58;8.07;;;9.70;99.90;;;;;;6372326;22;20014;-88
2023/12/12 09:01:24;;;;;;;28.48;7.95;;;8.80;99.90;;;;;;6371423;22;19998;-89
2023/12/12 09:03:53;;;;;;;26.48;7.50;;;9.40;99.90;;;;;;6376251;22;20006;-94
2023/12/12 09:06:18;;;;;;;28.23;8.23;;;9.20;99.90;;;;;;6383946;22;20022;-92
2023/12/12 09:09:06;;;;;;;25.63;7.38;;;9.50;99.90;;;;;;6376501;22;20101;-93
2023/12/12 09:11:33;;;;;;;27.55;8.27;;;9.50;99.90;;;;;;6372676;22;20326;-91
2023/12/12 09:14:03;;;;;;;38.33;8.25;;;8.90;99.90;;;;;;6342321;22;20006;-92
2023/12/12 09:16:29;;;;;;;22.70;6.70;;;8.90;99.90;;;;;;6371787;22;20300;-89
2023/12/12 09:18:55;;;;;;;26.42;6.65;;;10.20;99.90;;;;;;6367983;22;21191;-91
2023/12/12 09:21:30;;;;;;;29.02;8.18;;;9.40;99.90;;;;;;6375417;22;20052;-93
2023/12/12 09:23:57;;;;;;;26.42;6.93;;;9.30;99.90;;;;;;6372492;22;20014;-92
2023/12/12 09:26:24;;;;;;;38.25;8.85;;;9.60;99.90;;;;;;6380656;22;20006;-91
2023/12/12 09:28:53;;;;;;;36.53;8.27;;;9.40;99.90;;;;;;6380466;22;19998;-92
2023/12/12 09:31:35;;;;;;;24.23;7.28;;;8.90;99.90;;;;;;6370944;22;20098;-91
2023/12/12 09:34:01;;;;;;;26.73;7.45;;;8.90;99.90;;;;;;6371968;22;20055;-91
2023/12/12 09:36:26;;;;;;;30.02;7.10;;;10.00;99.90;;;;;;6371108;22;20003;-91
2023/12/12 09:39:07;;;;;;;20.13;6.45;;;9.60;99.90;;;;;;6370366;22;20472;-90
2023/12/12 09:41:36;;;;;;;30.52;7.25;;;9.60;99.90;;;;;;6371649;22;20006;-90
2023/12/12 09:44:09;;;;;;;31.90;7.35;;;9.70;99.90;;;;;;6371742;22;20007;-92
2023/12/12 09:46:53;;;;;;;32.15;7.38;;;8.80;99.90;;;;;;6371045;22;20272;-91
2023/12/12 09:49:19;;;;;;;29.30;8.43;;;9.90;99.90;;;;;;6373490;22;20413;-90
2023/12/12 09:51:52;;;;;;;29.20;7.20;;;9.00;99.90;;;;;;6371682;22;19998;-91
2023/12/12 09:54:19;;;;;;;27.17;7.35;;;9.70;99.90;;;;;;6362709;22;19998;-92
2023/12/12 09:56:53;;;;;;;22.95;7.30;;;10.00;99.90;;;;;;6376648;22;19998;-93
2023/12/12 09:59:18;;;;;;;25.95;7.07;;;9.80;99.90;;;;;;6381991;22;20010;-94
2023/12/12 10:02:06;;;;;;;31.25;7.82;;;10.40;99.90;;;;;;6381750;22;20010;-92
2023/12/12 10:04:33;;;;;;;27.52;7.15;;;9.00;99.90;;;;;;6375482;22;20042;-95
2023/12/12 10:07:19;;;;;;;31.30;7.22;;;10.20;99.90;;;;;;6376169;22;20008;-91
2023/12/12 10:09:46;;;;;;;25.00;6.38;;;9.20;99.90;;;;;;6370565;22;20003;-90
2023/12/12 10:12:30;;;;;;;25.33;7.60;;;10.00;99.90;;;;;;6378167;22;20077;-91
2023/12/12 10:15:21;;;;;;;28.73;6.57;;;10.40;99.90;;;;;;6382192;22;19998;-94
2023/12/12 10:17:47;;;;;;;27.00;6.57;;;9.60;99.90;;;;;;6386220;22;19994;-90
2023/12/12 10:20:38;;;;;;;25.83;7.07;;;10.40;99.90;;;;;;6378853;22;19997;-92
2023/12/12 10:23:12;;;;;;;;;;;9.00;99.90;;;;;;6383273;22;19999;-92
2023/12/12 10:26:07;;;;;;;23.73;5.45;;;10.50;99.90;;;;;;6375330;22;19909;-90
2023/12/12 10:28:33;;;;;;;25.13;7.10;;;9.80;99.90;;;;;;6368711;22;19998;-91
2023/12/12 10:30:59;;;;;;;26.63;7.03;;;9.70;99.90;;;;;;6373708;22;19991;-91
2023/12/12 10:33:27;;;;;;;26.35;6.28;;;9.70;99.90;;;;;;6373904;22;20002;-92
2023/12/12 10:35:57;;;;;;;26.58;6.47;;;10.10;99.90;;;;;;6374130;22;20002;-90
2023/12/12 10:38:28;;;;;;;25.30;6.65;;;10.40;99.90;;;;;;6371071;22;20002;-92
2023/12/12 10:40:54;;;;;;;30.25;7.38;;;10.30;99.90;;;;;;6371231;22;20006;-91
2023/12/12 10:44:11;;;;;;;26.25;6.70;;;10.90;99.90;;;;;;6371223;22;20006;-92
2023/12/12 10:47:02;;;;;;;20.83;7.25;;;9.90;99.90;;;;;;6375605;22;20385;-92
2023/12/12 10:49:50;;;;;;;24.77;7.03;;;9.20;99.90;;;;;;6378913;22;20011;-93
2023/12/12 10:52:38;;;;;;;25.90;6.72;;;10.00;99.90;;;;;;6379974;22;20314;-93
2023/12/12 10:55:24;;;;;;;33.67;7.80;;;9.90;99.90;;;;;;6380102;22;20077;-93
2023/12/12 10:57:52;;;;;;;28.58;7.53;;;9.90;99.90;;;;;;6386036;22;20022;-93
2023/12/12 11:00:32;;;;;;;27.00;7.82;;;9.90;99.90;;;;;;6381825;22;19998;-93
2023/12/12 11:03:03;;;;;;;22.30;6.47;;;9.80;99.90;;;;;;6380064;22;20063;-93
2023/12/12 11:05:29;;;;;;;24.83;7.35;;;10.10;99.90;;;;;;6379848;22;20002;-95
2023/12/12 11:08:52;;;;;;;19.70;6.60;;;10.00;99.90;;;;;;6380569;22;20002;-93
2023/12/12 11:11:40;;;;;;;22.55;6.80;;;10.00;99.90;;;;;;6389355;22;19998;-93
2023/12/12 11:14:23;;;;;;;22.75;6.93;;;10.40;99.90;;;;;;6390878;22;19998;-94
2023/12/12 11:16:51;;;;;;;20.17;7.47;;;10.10;99.90;;;;;;6387533;22;20010;-93
2023/12/12 11:19:29;;;;;;;22.92;7.65;;;9.90;99.90;;;;;;6374666;22;20009;-93
2023/12/12 11:21:55;;;;;;;23.35;7.28;;;10.10;99.90;;;;;;6340490;22;20015;-93
2023/12/12 11:25:15;;;;;;;19.35;7.95;;;11.10;99.90;;;;;;6340854;22;20073;-93
2023/12/12 11:28:04;;;;;;;13.48;6.22;;;10.20;99.90;;;;;;6342987;22;20419;-95
2023/12/12 11:30:37;;;;;;;19.98;6.60;;;10.20;99.90;;;;;;6341528;22;20419;-92
2023/12/12 11:33:25;;;;;;;23.73;7.13;;;11.00;99.90;;;;;;6344053;22;19995;-91
2023/12/12 11:35:50;;;;;;;21.42;7.53;;;9.90;99.90;;;;;;6338936;22;20415;-91
2023/12/12 11:38:38;;;;;;;18.15;6.65;;;10.30;99.90;;;;;;6337863;22;19995;-90
2023/12/12 11:41:14;;;;;;;20.15;7.53;;;10.10;99.90;;;;;;6338436;22;20026;-90
2023/12/12 11:44:03;;;;;;;24.30;7.35;;;10.40;99.90;;;;;;6338442;22;20061;-90
2023/12/12 11:46:30;;;;;;;21.13;7.00;;;10.70;99.90;;;;;;6337060;22;20010;-91
2023/12/12 11:49:18;;;;;;;18.40;7.43;;;10.40;99.90;;;;;;6339579;22;19999;-92
2023/12/12 11:51:46;;;;;;;21.48;7.72;;;9.90;99.90;;;;;;6336971;22;20053;-91
2023/12/12 11:54:33;;;;;;;25.10;6.78;;;11.40;99.90;;;;;;6339074;22;20031;-93
2023/12/12 11:57:00;;;;;;;23.67;7.53;;;10.50;99.90;;;;;;6339706;22;20006;-91
2023/12/12 11:59:46;;;;;;;21.23;6.80;;;12.00;99.90;;;;;;6339299;22;19999;-94
2023/12/12 12:02:14;;;;;;;15.80;7.05;;;10.60;99.90;;;;;;6336971;22;20007;-87
2023/12/12 12:04:40;;;;;;;20.38;7.38;;;11.20;99.90;;;;;;6339500;22;20034;-86
2023/12/12 12:07:27;;;;;;;14.55;6.85;;;11.50;99.90;;;;;;6342907;22;20411;-86
2023/12/12 12:15:30;;;;;;;15.65;7.30;;;10.60;99.90;;;;;;6342406;22;20034;-90
2023/12/12 12:17:57;;;;;;;;;;;11.10;99.90;;;;;;6339989;22;20333;-90
2023/12/12 12:20:45;;;;;;;17.83;7.22;;;10.60;99.90;;;;;;6338261;22;19903;-91
2023/12/12 12:23:10;;;;;;;9.93;6.70;;;10.60;99.90;;;;;;6340665;22;20442;-91
2023/12/12 12:25:36;;;;;;;12.80;7.18;;;11.20;99.90;;;;;;6339238;22;20007;-92
2023/12/12 12:28:20;;;;;;;17.77;6.55;;;10.60;99.90;;;;;;6338742;22;20033;-92
2023/12/12 12:30:46;;;;;;;12.85;6.53;;;10.60;99.90;;;;;;6337781;22;20013;-92
2023/12/12 12:33:13;;;;;;;16.30;6.60;;;10.70;99.90;;;;;;6338793;22;20022;-89
2023/12/12 12:35:57;;;;;;;14.15;7.38;;;11.40;99.90;;;;;;6337577;22;19995;-92
2023/12/12 12:38:26;;;;;;;17.80;7.55;;;11.20;99.90;;;;;;6338830;22;20068;-92
2023/12/12 12:41:10;;;;;;;19.10;6.90;;;10.90;99.90;;;;;;6337598;22;20047;-91
2023/12/12 12:43:37;;;;;;;12.32;6.18;;;10.80;99.90;;;;;;6340315;22;20026;-91
2023/12/12 12:46:15;;;;;;;13.38;7.40;;;10.50;99.90;;;;;;6341393;22;20002;-91
2023/12/12 12:48:41;;;;;;;12.82;6.38;;;11.40;99.90;;;;;;6339207;22;20066;-92
2023/12/12 12:51:07;;;;;;;12.80;7.25;;;11.30;99.90;;;;;;6340553;22;20006;-91
2023/12/12 12:53:32;;;;;;;11.27;6.50;;;11.50;99.90;;;;;;6339752;22;20006;-91
2023/12/12 12:55:59;;;;;;;18.70;6.60;;;11.80;99.90;;;;;;6339531;22;19999;-91
2023/12/12 12:58:25;;;;;;;15.50;6.60;;;10.90;99.90;;;;;;6339438;22;20422;-91
2023/12/12 13:00:50;;;;;;;14.93;7.47;;;11.10;99.90;;;;;;6357687;22;20024;-90
2023/12/12 13:03:16;;;;;;;10.88;6.80;;;12.10;99.90;;;;;;6350331;22;20327;-90
2023/12/12 13:05:41;;;;;;;13.63;6.93;;;11.40;99.90;;;;;;6341875;22;20014;-91
2023/12/12 13:08:07;;;;;;;8.85;5.95;;;11.60;99.90;;;;;;6340222;22;20025;-92
2023/12/12 13:10:33;;;;;;;8.20;6.10;;;11.50;99.90;;;;;;6338945;22;20296;-92
2023/12/12 13:12:58;;;;;;;13.70;8.23;;;11.30;99.90;;;;;;6343560;22;19998;-91
2023/12/12 13:15:24;;;;;;;12.80;6.72;;;10.50;99.90;;;;;;6368420;22;20015;-92
2023/12/12 13:18:08;;;;;;;23.98;8.30;;;11.70;99.90;;;;;;6371485;22;20430;-92
2023/12/12 13:20:34;;;;;;;13.35;6.93;;;11.30;99.90;;;;;;6376619;22;20021;-93
2023/12/12 13:22:59;;;;;;;12.23;6.53;;;10.70;99.90;;;;;;6374958;22;20007;-94
2023/12/12 13:25:25;;;;;;;12.18;6.13;;;11.30;99.90;;;;;;6375708;22;20017;-79
2023/12/12 13:27:50;;;;;;;7.43;6.32;;;11.50;99.90;;;;;;6382973;22;19999;-93
2023/12/12 13:30:16;;;;;;;9.52;5.07;;;11.60;99.90;;;;;;6375946;22;20007;-90
2023/12/12 13:32:43;;;;;;;13.50;6.18;;;10.80;99.90;;;;;;6373656;22;19995;-88
2023/12/12 13:35:10;;;;;;;7.32;5.00;;;10.80;99.90;;;;;;6370919;22;20002;-92
2023/12/12 13:37:37;;;;;;;7.55;4.25;;;11.60;99.90;;;;;;6368248;22;20009;-90
2023/12/12 13:40:05;;;;;;;7.63;5.35;;;11.20;99.90;;;;;;6370279;22;20012;-92
2023/12/12 13:42:32;;;;;;;9.63;5.85;;;10.80;99.90;;;;;;6370291;22;20466;-91
2023/12/12 13:44:57;;;;;;;6.47;5.03;;;10.90;99.90;;;;;;6368973;22;20014;-94
2023/12/12 13:47:27;;;;;;;7.90;5.28;;;11.20;99.90;;;;;;6369654;22;20048;-90
2023/12/12 13:49:53;;;;;;;6.50;5.55;;;11.40;99.90;;;;;;6369453;22;20041;-91
2023/12/12 13:52:25;;;;;;;9.82;5.50;;;10.70;99.90;;;;;;6370382;22;19998;-92
2023/12/12 13:54:51;;;;;;;11.57;6.70;;;11.30;99.90;;;;;;6392804;22;20005;-91
2023/12/12 13:57:16;;;;;;;9.25;5.82;;;11.80;99.90;;;;;;6379646;22;20006;-92
2023/12/12 13:59:42;;;;;;;10.68;6.20;;;10.70;99.90;;;;;;6371958;22;20441;-92